createdAt,value
2019-04-03T00:00:12.095Z,70.1
2019-04-03T00:01:03.993Z,70.1
2019-04-03T00:01:51.967Z,70.1
2019-04-03T00:02:42.872Z,70.2
2019-04-03T00:03:34.156Z,70.2
2019-04-03T00:04:23.207Z,70.2
2019-04-03T00:05:13.644Z,70.5
2019-04-03T00:06:05.472Z,70.6
2019-04-03T00:06:53.647Z,70.5
2019-04-03T00:07:43.617Z,70.6
2019-04-03T00:08:34.735Z,70.6
2019-04-03T00:09:23.571Z,70.9
2019-04-03T00:10:13.597Z,71
2019-04-03T00:11:03.570Z,70.9
2019-04-03T00:11:53.575Z,70.9
2019-04-03T00:12:44.144Z,71.1
2019-04-03T00:13:34.174Z,70.8
2019-04-03T00:14:24.173Z,71.1
2019-04-03T00:15:14.264Z,71.1
2019-04-03T00:16:04.089Z,71.1
2019-04-03T00:16:54.164Z,71.1
2019-04-03T00:17:45.929Z,71.3
2019-04-03T00:18:34.078Z,71.2
2019-04-03T00:19:24.154Z,71.2
2019-04-03T00:20:14.315Z,71.1
2019-04-03T00:21:04.337Z,71.1
2019-04-03T00:21:54.187Z,71.1
2019-04-03T00:22:46.031Z,71.1
2019-04-03T00:23:34.201Z,71
2019-04-03T00:24:29.124Z,71
2019-04-03T00:25:22.283Z,71
2019-04-03T00:26:10.104Z,71
2019-04-03T00:27:00.535Z,70.9
2019-04-03T00:27:52.442Z,70.9
2019-04-03T00:28:40.768Z,70.9
2019-04-03T00:29:30.836Z,71
2019-04-03T00:30:22.721Z,71.1
2019-04-03T00:31:15.336Z,71.1
2019-04-03T00:32:05.349Z,70.9
2019-04-03T00:32:55.642Z,70.9
2019-04-03T00:33:45.527Z,70.9
2019-04-03T00:34:36.083Z,70.9
2019-04-03T00:35:27.269Z,71
2019-04-03T00:36:16.715Z,71.3
2019-04-03T00:37:06.936Z,71.2
2019-04-03T00:37:56.847Z,71
2019-04-03T00:38:46.859Z,70.9
2019-04-03T00:39:38.656Z,70.9
2019-04-03T00:40:28.669Z,71.1
2019-04-03T00:41:19.220Z,70.9
2019-04-03T00:42:11.457Z,70.9
2019-04-03T00:43:05.293Z,71
2019-04-03T00:43:55.195Z,71
2019-04-03T00:44:45.243Z,71.1
2019-04-03T00:45:35.404Z,71.1
2019-04-03T00:46:25.454Z,71.1
2019-04-03T00:47:15.497Z,71
2019-04-03T00:48:05.460Z,71
2019-04-03T00:48:56.207Z,70.9
2019-04-03T00:49:45.421Z,70.9
2019-04-03T00:50:35.484Z,70.9
2019-04-03T00:51:26.945Z,70.8
2019-04-03T00:52:15.464Z,70.8
2019-04-03T00:53:05.526Z,70.6
2019-04-03T00:53:55.822Z,70.8
2019-04-03T00:54:45.462Z,70.8
2019-04-03T00:55:36.413Z,70.7
2019-04-03T00:56:26.708Z,70.8
2019-04-03T00:57:17.005Z,70.9
2019-04-03T00:58:06.972Z,70.9
2019-04-03T00:58:56.959Z,71.1
2019-04-03T00:59:46.970Z,71
2019-04-03T01:00:37.088Z,71.1
2019-04-03T01:01:30.311Z,71.2
2019-04-03T01:02:22.083Z,71.4
2019-04-03T01:03:12.017Z,71.4
2019-04-03T01:04:02.219Z,71.3
2019-04-03T01:04:52.064Z,71.5
2019-04-03T01:05:42.082Z,71.6
2019-04-03T01:06:32.561Z,71.4
2019-04-03T01:07:22.245Z,71.4
2019-04-03T01:08:12.097Z,71.3
2019-04-03T01:09:02.103Z,71.3
2019-04-03T01:09:52.144Z,71.5
2019-04-03T01:10:44.304Z,71.5
2019-04-03T01:11:34.336Z,71.6
2019-04-03T01:12:24.489Z,71.5
2019-04-03T01:13:14.569Z,71.7
2019-04-03T01:14:07.586Z,71.6
2019-04-03T01:15:01.482Z,71.8
2019-04-03T01:15:50.014Z,71.7
2019-04-03T01:16:40.043Z,72
2019-04-03T01:17:29.995Z,72
2019-04-03T01:18:23.648Z,72.2
2019-04-03T01:19:13.756Z,72.3
2019-04-03T01:20:12.735Z,72.4
2019-04-03T01:21:11.954Z,72.5
2019-04-03T01:22:05.620Z,72.4
2019-04-03T01:22:59.529Z,72.5
2019-04-03T01:23:54.721Z,72.4
2019-04-03T01:24:44.552Z,72.7
2019-04-03T01:25:34.551Z,72.6
2019-04-03T01:26:40.606Z,72
2019-04-03T01:27:29.117Z,71.7
2019-04-03T01:28:19.287Z,71.3
2019-04-03T01:29:09.129Z,71.3
2019-04-03T01:29:59.178Z,71.3
2019-04-03T01:30:49.585Z,71.3
2019-04-03T01:31:40.464Z,71.3
2019-04-03T01:32:30.238Z,71.3
2019-04-03T01:33:20.299Z,71.3
2019-04-03T01:34:11.147Z,71.4
2019-04-03T01:35:00.543Z,71.3
2019-04-03T01:35:50.417Z,71.2
2019-04-03T01:36:41.511Z,71.1
2019-04-03T01:37:32.688Z,71.1
2019-04-03T01:38:21.560Z,71
2019-04-03T01:39:11.554Z,70.9
2019-04-03T01:40:01.595Z,70.9
2019-04-03T01:40:51.636Z,70.8
2019-04-03T01:41:45.056Z,70.8
2019-04-03T01:42:35.242Z,70.7
2019-04-03T01:43:24.997Z,70.8
2019-04-03T01:44:15.030Z,70.8
2019-04-03T01:45:07.040Z,70.8
2019-04-03T01:45:57.288Z,70.8
2019-04-03T01:46:58.284Z,70.9
2019-04-03T01:47:50.966Z,70.9
2019-04-03T01:48:40.665Z,70.8
2019-04-03T01:49:30.722Z,70.7
2019-04-03T01:50:22.662Z,70.7
2019-04-03T01:51:12.706Z,70.7
2019-04-03T01:52:05.804Z,70.9
2019-04-03T01:52:55.897Z,70.9
2019-04-03T01:53:45.897Z,70.8
2019-04-03T01:54:38.091Z,70.8
2019-04-03T01:55:28.374Z,70.7
2019-04-03T01:56:19.445Z,70.8
2019-04-03T01:57:09.247Z,70.8
2019-04-03T01:57:59.509Z,70.7
2019-04-03T01:58:49.574Z,70.6
2019-04-03T01:59:39.557Z,70.4
2019-04-03T02:00:30.050Z,70.4
2019-04-03T02:01:26.850Z,70.4
2019-04-03T02:02:21.670Z,70.5
2019-04-03T02:03:12.052Z,70.5
2019-04-03T02:04:01.972Z,70.6
2019-04-03T02:04:52.050Z,70.6
2019-04-03T02:05:43.756Z,70.6
2019-04-03T02:06:34.489Z,70.6
2019-04-03T02:07:25.115Z,70.5
2019-04-03T02:08:16.422Z,70.5
2019-04-03T02:09:06.839Z,70.5
2019-04-03T02:09:57.622Z,70.4
2019-04-03T02:10:50.982Z,70.4
2019-04-03T02:11:42.426Z,70.3
2019-04-03T02:12:36.177Z,70.3
2019-04-03T02:13:26.042Z,70.3
2019-04-03T02:14:16.066Z,70.4
2019-04-03T02:15:06.021Z,70.4
2019-04-03T02:15:56.065Z,70.4
2019-04-03T02:16:46.033Z,70.4
2019-04-03T02:17:40.931Z,70.4
2019-04-03T02:18:30.910Z,70.4
2019-04-03T02:19:20.953Z,70.4
2019-04-03T02:20:11.820Z,70.4
2019-04-03T02:21:08.641Z,70.5
2019-04-03T02:22:03.044Z,70.4
2019-04-03T02:22:55.361Z,70.4
2019-04-03T02:23:47.406Z,70.4
2019-04-03T02:24:36.952Z,70.4
2019-04-03T02:25:31.322Z,70.4
2019-04-03T02:26:21.353Z,70.3
2019-04-03T02:27:12.643Z,70.3
2019-04-03T02:28:08.673Z,70.3
2019-04-03T02:29:04.599Z,70.3
2019-04-03T02:29:53.585Z,70.3
2019-04-03T02:30:45.951Z,70.3
2019-04-03T02:31:33.525Z,70.3
2019-04-03T02:32:24.598Z,70.4
2019-04-03T02:33:13.521Z,70.4
2019-04-03T02:34:03.615Z,70.3
2019-04-03T02:34:53.622Z,70.4
2019-04-03T02:35:53.349Z,70.4
2019-04-03T02:36:48.940Z,70.5
2019-04-03T02:37:38.559Z,70.5
2019-04-03T02:38:28.816Z,70.4
2019-04-03T02:39:18.699Z,70.4
2019-04-03T02:40:08.875Z,70.4
2019-04-03T02:40:58.898Z,70.4
2019-04-03T02:41:48.857Z,70.4
2019-04-03T02:42:44.721Z,70.3
2019-04-03T02:43:34.377Z,70.3
2019-04-03T02:44:36.309Z,70.3
2019-04-03T02:45:27.491Z,70.3
2019-04-03T02:46:17.903Z,70.3
2019-04-03T02:47:08.772Z,70.2
2019-04-03T02:47:58.794Z,70.3
2019-04-03T02:48:49.775Z,70.3
2019-04-03T02:49:42.634Z,70.3
2019-04-03T02:50:31.794Z,70.3
2019-04-03T02:51:21.672Z,70.4
2019-04-03T02:52:13.490Z,70.3
2019-04-03T02:53:07.505Z,70.2
2019-04-03T02:55:13.795Z,70.3
2019-04-03T02:56:03.811Z,70.2
2019-04-03T02:56:53.875Z,70.5
2019-04-03T02:57:48.331Z,70.5
2019-04-03T02:58:34.762Z,70.5
2019-04-03T02:59:27.646Z,70.6
2019-04-03T03:00:17.335Z,70.5
2019-04-03T03:01:07.826Z,70.5
2019-04-03T03:01:57.289Z,70.4
2019-04-03T03:02:48.455Z,70.5
2019-04-03T03:03:37.534Z,70.5
2019-04-03T03:04:27.610Z,70.5
2019-04-03T03:05:17.970Z,70.4
2019-04-03T03:06:07.537Z,70.6
2019-04-03T03:06:57.564Z,70.8
2019-04-03T03:07:47.577Z,70.9
2019-04-03T03:08:42.174Z,71.1
2019-04-03T03:09:31.009Z,71
2019-04-03T03:10:21.399Z,71
2019-04-03T03:11:11.198Z,70.9
2019-04-03T03:12:01.944Z,70.9
2019-04-03T03:12:59.583Z,71
2019-04-03T03:13:49.300Z,70.9
2019-04-03T03:14:39.911Z,70.9
2019-04-03T03:15:32.998Z,71
2019-04-03T03:16:22.601Z,71
2019-04-03T03:17:16.733Z,71
2019-04-03T03:18:06.992Z,70.9
2019-04-03T03:19:00.441Z,70.9
2019-04-03T03:19:50.337Z,71
2019-04-03T03:20:40.433Z,71
2019-04-03T03:21:28.871Z,71.1
2019-04-03T03:22:19.015Z,71.2
2019-04-03T03:23:08.690Z,71.3
2019-04-03T03:23:58.861Z,71.3
2019-04-03T03:24:49.512Z,71.3
2019-04-03T03:25:41.263Z,71.4
2019-04-03T03:26:32.169Z,71.4
2019-04-03T03:27:22.274Z,71.4
2019-04-03T03:28:14.020Z,71.3
2019-04-03T03:29:14.811Z,71.2
2019-04-03T03:29:52.144Z,71.2
2019-04-03T03:30:47.814Z,71.2
2019-04-03T03:32:01.079Z,71.2
2019-04-03T03:32:30.570Z,71.2
2019-04-03T03:33:31.838Z,71.2
2019-04-03T03:34:06.441Z,71.3
2019-04-03T03:35:09.073Z,71.4
2019-04-03T03:35:53.597Z,71.6
2019-04-03T03:36:43.586Z,71.6
2019-04-03T03:37:34.979Z,71.6
2019-04-03T03:38:27.042Z,71.5
2019-04-03T03:39:13.211Z,71.4
2019-04-03T03:40:03.304Z,71.4
2019-04-03T03:40:55.056Z,71.6
2019-04-03T03:41:45.058Z,71.9
2019-04-03T03:42:38.158Z,72.1
2019-04-03T03:43:27.976Z,72.5
2019-04-03T03:44:17.832Z,72.7
2019-04-03T03:45:08.745Z,72.9
2019-04-03T03:45:58.919Z,73.1
2019-04-03T03:46:54.373Z,73.4
2019-04-03T03:47:42.753Z,73.5
2019-04-03T03:48:32.899Z,73.6
2019-04-03T03:49:22.740Z,73.6
2019-04-03T03:50:12.841Z,73.9
2019-04-03T03:51:03.130Z,74.2
2019-04-03T03:51:54.237Z,74.2
2019-04-03T03:52:44.558Z,74.3
2019-04-03T03:53:34.511Z,74.4
2019-04-03T03:54:25.097Z,74.4
2019-04-03T03:55:14.795Z,74.6
2019-04-03T03:56:04.523Z,74.9
2019-04-03T03:56:55.358Z,74.9
2019-04-03T03:57:44.539Z,75
2019-04-03T03:58:34.616Z,75
2019-04-03T03:59:25.079Z,75
2019-04-03T04:00:25.002Z,75.2
2019-04-03T04:01:14.761Z,75.5
2019-04-03T04:02:06.716Z,75.5
2019-04-03T04:02:58.767Z,75.7
2019-04-03T04:03:46.802Z,75.8
2019-04-03T04:04:36.599Z,76
2019-04-03T04:05:29.753Z,76.1
2019-04-03T04:06:21.374Z,76.4
2019-04-03T04:07:15.106Z,76.4
2019-04-03T04:08:10.413Z,76.4
2019-04-03T04:08:59.079Z,76.5
2019-04-03T04:09:50.475Z,76.6
2019-04-03T04:10:39.350Z,76.6
2019-04-03T04:11:34.038Z,76.8
2019-04-03T04:12:24.318Z,76.8
2019-04-03T04:13:15.683Z,76.8
2019-04-03T04:14:04.160Z,76.8
2019-04-03T04:14:57.365Z,76.9
2019-04-03T04:16:02.060Z,76.9
2019-04-03T04:16:48.665Z,76.9
2019-04-03T04:17:41.732Z,77
2019-04-03T04:18:36.582Z,77.2
2019-04-03T04:19:30.960Z,77.2
2019-04-03T04:20:20.249Z,77.2
2019-04-03T04:21:12.339Z,77.3
2019-04-03T04:22:01.898Z,77.4
2019-04-03T04:22:51.851Z,77.4
2019-04-03T04:23:43.093Z,77.5
2019-04-03T04:24:33.046Z,77.6
2019-04-03T04:25:25.185Z,77.6
2019-04-03T04:26:15.180Z,77.7
2019-04-03T04:27:08.228Z,77.8
2019-04-03T04:28:03.025Z,77.9
2019-04-03T04:28:54.601Z,77.8
2019-04-03T04:29:49.093Z,77.9
2019-04-03T04:30:42.478Z,78
2019-04-03T04:31:34.088Z,78
2019-04-03T04:32:30.163Z,78.2
2019-04-03T04:33:21.040Z,78.3
2019-04-03T04:34:12.457Z,78.5
2019-04-03T04:35:04.462Z,78.5
2019-04-03T04:35:56.137Z,78.4
2019-04-03T04:36:49.073Z,78.5
2019-04-03T04:37:42.782Z,78.4
2019-04-03T04:38:32.719Z,78.5
2019-04-03T04:39:28.406Z,78.4
2019-04-03T04:40:20.724Z,78.3
2019-04-03T04:41:10.478Z,78.4
2019-04-03T04:42:04.299Z,78.4
2019-04-03T04:42:50.551Z,78.5
2019-04-03T04:43:41.096Z,78.6
2019-04-03T04:44:36.149Z,78.6
2019-04-03T04:45:28.342Z,78.7
2019-04-03T04:46:17.796Z,78.8
2019-04-03T04:47:15.011Z,78.9
2019-04-03T04:48:04.012Z,78.9
2019-04-03T04:49:03.482Z,79
2019-04-03T04:49:54.318Z,79
2019-04-03T04:50:55.015Z,79
2019-04-03T04:51:43.135Z,79.1
2019-04-03T04:52:33.752Z,79.1
2019-04-03T04:53:29.582Z,79.2
2019-04-03T04:54:18.929Z,79.2
2019-04-03T04:55:14.009Z,79.2
2019-04-03T04:56:06.472Z,79.2
2019-04-03T04:56:55.361Z,79.2
2019-04-03T04:57:45.526Z,79.3
2019-04-03T04:58:35.542Z,79.5
2019-04-03T04:59:25.424Z,79.5
2019-04-03T05:00:16.262Z,79.5
2019-04-03T05:01:07.373Z,79.6
2019-04-03T05:01:56.267Z,79.6
2019-04-03T05:02:46.222Z,79.7
2019-04-03T05:03:36.242Z,79.8
2019-04-03T05:04:26.252Z,80
2019-04-03T05:05:18.934Z,80.2
2019-04-03T05:06:09.112Z,80.2
2019-04-03T05:07:00.103Z,80.1
2019-04-03T05:07:49.652Z,80
2019-04-03T05:08:39.651Z,80
2019-04-03T05:09:29.619Z,80
2019-04-03T05:10:19.717Z,80
2019-04-03T05:11:09.752Z,80
2019-04-03T05:12:00.895Z,80.2
2019-04-03T05:12:53.844Z,80.3
2019-04-03T05:13:46.266Z,80.4
2019-04-03T05:14:33.865Z,80.4
2019-04-03T05:15:24.106Z,80.5
2019-04-03T05:16:13.868Z,80.5
2019-04-03T05:17:03.998Z,80.5
2019-04-03T05:17:53.840Z,80.6
2019-04-03T05:18:44.019Z,80.7
2019-04-03T05:19:33.997Z,80.8
2019-04-03T05:20:24.064Z,80.9
2019-04-03T05:21:13.954Z,80.9
2019-04-03T05:22:05.929Z,80.9
2019-04-03T05:22:55.721Z,80.8
2019-04-03T05:23:45.108Z,80.7
2019-04-03T05:24:35.131Z,80.7
2019-04-03T05:25:25.133Z,80.7
2019-04-03T05:26:15.081Z,80.8
2019-04-03T05:27:07.283Z,80.9
2019-04-03T05:27:55.343Z,80.9
2019-04-03T05:28:54.526Z,81
2019-04-03T05:29:35.467Z,81
2019-04-03T05:30:25.399Z,81.1
2019-04-03T05:31:15.398Z,81
2019-04-03T05:32:05.430Z,80.9
2019-04-03T05:32:55.553Z,80.8
2019-04-03T05:33:45.363Z,80.7
2019-04-03T05:34:35.352Z,80.6
2019-04-03T05:35:25.334Z,80.4
2019-04-03T05:36:17.323Z,80.3
2019-04-03T05:37:05.560Z,80.2
2019-04-03T05:37:55.652Z,80.3
2019-04-03T05:38:46.145Z,80.3
2019-04-03T05:39:36.085Z,80.4
2019-04-03T05:40:26.700Z,80.4
2019-04-03T05:41:16.118Z,80.2
2019-04-03T05:42:06.095Z,80.4
2019-04-03T05:42:56.327Z,80.3
2019-04-03T05:43:46.060Z,80.3
2019-04-03T05:44:36.958Z,80.2
2019-04-03T05:45:26.921Z,80.4
2019-04-03T05:46:19.978Z,80.6
2019-04-03T05:47:10.182Z,80.6
2019-04-03T05:48:00.110Z,80.5
2019-04-03T05:48:50.044Z,80.5
2019-04-03T05:49:39.867Z,80.6
2019-04-03T05:50:30.100Z,80.6
2019-04-03T05:51:19.949Z,80.7
2019-04-03T05:52:13.478Z,80.7
2019-04-03T05:53:00.150Z,80.6
2019-04-03T05:53:54.049Z,80.7
2019-04-03T05:54:44.393Z,81.2
2019-04-03T05:55:33.160Z,81.3
2019-04-03T05:56:23.223Z,81.4
2019-04-03T05:57:14.207Z,81.5
2019-04-03T05:58:03.376Z,81.7
2019-04-03T05:58:55.862Z,81.7
2019-04-03T05:59:43.952Z,81.9
2019-04-03T06:00:33.178Z,81.9
2019-04-03T06:01:23.363Z,82
2019-04-03T06:02:17.489Z,82
2019-04-03T06:03:04.566Z,82.1
2019-04-03T06:03:55.368Z,82.3
2019-04-03T06:04:45.078Z,82.5
2019-04-03T06:05:35.042Z,82.5
2019-04-03T06:06:26.088Z,82.6
2019-04-03T06:07:18.025Z,82.7
2019-04-03T06:08:05.927Z,82.8
2019-04-03T06:08:56.626Z,82.8
2019-04-03T06:09:46.023Z,82.8
2019-04-03T06:11:02.697Z,82.9
2019-04-03T06:12:28.501Z,82.9
2019-04-03T06:13:37.645Z,82.8
2019-04-03T06:14:44.521Z,82.9
2019-04-03T06:18:22.561Z,83.2
2019-04-03T06:19:12.573Z,83.2
2019-04-03T06:20:02.610Z,83.3
2019-04-03T06:20:52.369Z,83.3
2019-04-03T06:21:45.394Z,83.3
2019-04-03T06:22:33.021Z,83.3
2019-04-03T06:23:23.053Z,83.3
2019-04-03T06:24:13.003Z,83.4
2019-04-03T06:25:03.397Z,83.5
2019-04-03T06:25:53.052Z,83.5
2019-04-03T06:26:44.433Z,83.8
2019-04-03T06:27:33.125Z,83.7
2019-04-03T06:28:24.022Z,83.7
2019-04-03T06:29:13.869Z,83.7
2019-04-03T06:30:04.714Z,83.7
2019-04-03T06:30:56.410Z,83.7
2019-04-03T06:31:44.633Z,83.7
2019-04-03T06:32:34.619Z,83.7
2019-04-03T06:33:25.242Z,83.7
2019-04-03T06:34:15.370Z,83.7
2019-04-03T06:35:05.333Z,83.8
2019-04-03T06:35:55.963Z,83.9
2019-04-03T06:36:46.251Z,83.9
2019-04-03T06:37:36.991Z,83.9
2019-04-03T06:38:28.008Z,83.9
2019-04-03T06:40:37.622Z,84.1
2019-04-03T06:41:27.605Z,84.2
2019-04-03T06:42:18.039Z,84.3
2019-04-03T06:43:07.625Z,84.2
2019-04-03T06:43:57.630Z,84.2
2019-04-03T06:44:47.634Z,84.2
2019-04-03T06:45:37.612Z,84.3
2019-04-03T06:46:29.901Z,84.4
2019-04-03T06:47:21.844Z,84.4
2019-04-03T06:48:11.405Z,84.4
2019-04-03T06:49:01.479Z,84.4
2019-04-03T06:49:51.426Z,84.4
2019-04-03T06:50:41.515Z,84.4
2019-04-03T06:51:31.433Z,84.4
2019-04-03T06:52:22.977Z,84.4
2019-04-03T06:53:23.844Z,84.4
2019-04-03T06:54:10.229Z,84.5
2019-04-03T06:55:01.149Z,84.4
2019-04-03T06:55:51.065Z,84.5
2019-04-03T06:56:41.269Z,84.5
2019-04-03T06:57:30.993Z,84.5
2019-04-03T06:58:26.466Z,84.5
2019-04-03T06:59:10.913Z,84.4
2019-04-03T07:00:01.263Z,84.5
2019-04-03T07:00:53.799Z,84.5
2019-04-03T07:01:41.036Z,84.5
2019-04-03T07:02:32.389Z,84.5
2019-04-03T07:03:24.171Z,84.5
2019-04-03T07:04:11.896Z,84.5
2019-04-03T07:05:02.559Z,84.6
2019-04-03T07:05:52.122Z,84.5
2019-04-03T07:06:42.768Z,84.5
2019-04-03T07:07:34.477Z,84.5
2019-04-03T07:08:30.864Z,84.5
2019-04-03T07:10:02.262Z,84.5
2019-04-03T07:10:55.512Z,84.5
2019-04-03T07:11:43.334Z,84.6
2019-04-03T07:12:31.919Z,84.5
2019-04-03T07:13:21.932Z,84.6
2019-04-03T07:14:12.977Z,84.6
2019-04-03T07:15:02.186Z,84.7
2019-04-03T07:15:51.925Z,84.7
2019-04-03T07:16:41.886Z,84.8
2019-04-03T07:17:32.828Z,84.8
2019-04-03T07:18:21.948Z,84.8
2019-04-03T07:19:11.945Z,84.8
2019-04-03T07:20:12.291Z,84.8
2019-04-03T07:20:52.576Z,84.7
2019-04-03T07:21:41.849Z,84.7
2019-04-03T07:22:31.905Z,84.7
2019-04-03T07:23:21.901Z,84.7
2019-04-03T07:24:12.164Z,84.8
2019-04-03T07:25:03.456Z,84.8
2019-04-03T07:25:52.195Z,84.8
2019-04-03T07:26:41.895Z,84.7
2019-04-03T07:27:31.873Z,84.7
2019-04-03T07:28:22.019Z,84.7
2019-04-03T07:29:12.589Z,84.8
2019-04-03T07:30:02.082Z,84.7
2019-04-03T07:30:53.501Z,84.7
2019-04-03T07:31:44.933Z,84.8
2019-04-03T07:32:34.964Z,84.8
2019-04-03T07:33:25.377Z,84.9
2019-04-03T07:34:15.180Z,84.9
2019-04-03T07:35:07.549Z,84.9
2019-04-03T07:35:54.935Z,84.9
2019-04-03T07:36:45.472Z,84.9
2019-04-03T07:37:35.073Z,84.9
2019-04-03T07:38:24.937Z,84.9
2019-04-03T07:39:15.199Z,85
2019-04-03T07:40:04.942Z,85
2019-04-03T07:40:55.031Z,85
2019-04-03T07:41:45.160Z,85
2019-04-03T07:42:34.914Z,85
2019-04-03T07:43:26.798Z,85
2019-04-03T07:44:14.898Z,85
2019-04-03T07:45:04.923Z,85
2019-04-03T07:45:55.003Z,85
2019-04-03T07:46:45.119Z,85
2019-04-03T07:47:35.795Z,84.9
2019-04-03T07:48:25.078Z,84.9
2019-04-03T07:49:14.904Z,84.8
2019-04-03T07:50:05.017Z,84.8
2019-04-03T07:50:55.102Z,84.8
2019-04-03T07:51:44.897Z,84.9
2019-04-03T07:52:34.895Z,84.9
2019-04-03T07:53:25.116Z,84.8
2019-04-03T07:54:15.990Z,84.8
2019-04-03T07:55:06.025Z,84.7
2019-04-03T07:55:56.053Z,84.7
2019-04-03T07:56:48.596Z,84.7
2019-04-03T07:57:40.600Z,84.7
2019-04-03T07:58:30.485Z,84.8
2019-04-03T07:59:19.353Z,84.8
2019-04-03T08:00:13.905Z,84.7
2019-04-03T08:01:22.496Z,84.7
2019-04-03T08:02:13.300Z,84.6
2019-04-03T08:03:04.707Z,84.5
2019-04-03T08:03:56.519Z,84.5
2019-04-03T08:04:46.520Z,84.6
2019-04-03T08:05:38.480Z,84.6
2019-04-03T08:06:26.729Z,84.6
2019-04-03T08:07:16.525Z,84.6
2019-04-03T08:08:06.773Z,84.6
2019-04-03T08:09:07.174Z,84.6
2019-04-03T08:09:47.885Z,84.5
2019-04-03T08:10:38.031Z,84.6
2019-04-03T08:11:28.046Z,84.6
2019-04-03T08:12:18.497Z,84.6
2019-04-03T08:13:07.949Z,84.7
2019-04-03T08:13:57.947Z,84.7
2019-04-03T08:14:47.898Z,85.1
2019-04-03T08:15:38.763Z,84.8
2019-04-03T08:16:27.916Z,84.8
2019-04-03T08:17:19.021Z,84.9
2019-04-03T08:18:07.963Z,84.9
2019-04-03T08:18:58.097Z,84.9
2019-04-03T08:19:47.891Z,84.9
2019-04-03T08:20:38.560Z,85
2019-04-03T08:21:29.974Z,85.2
2019-04-03T08:22:18.087Z,85.3
2019-04-03T08:23:07.930Z,85.3
2019-04-03T08:23:58.181Z,85.3
2019-04-03T08:24:47.927Z,85.2
2019-04-03T08:25:38.157Z,85.1
2019-04-03T08:26:27.919Z,85.1
2019-04-03T08:27:18.174Z,85.1
2019-04-03T08:28:07.874Z,85.1
2019-04-03T08:29:00.643Z,85.1
2019-04-03T08:29:48.242Z,85.1
2019-04-03T08:30:39.593Z,85.1
2019-04-03T08:31:28.183Z,85.2
2019-04-03T08:32:17.901Z,85.3
2019-04-03T08:33:15.647Z,85.3
2019-04-03T08:33:59.482Z,85.3
2019-04-03T08:34:48.855Z,85.3
2019-04-03T08:35:39.015Z,85.2
2019-04-03T08:36:28.743Z,85.2
2019-04-03T08:37:28.340Z,85.1
2019-04-03T08:38:08.791Z,85
2019-04-03T08:38:58.897Z,85
2019-04-03T08:39:49.780Z,85
2019-04-03T08:40:40.814Z,85
2019-04-03T08:41:28.854Z,84.9
2019-04-03T08:42:18.755Z,84.9
2019-04-03T08:43:08.763Z,84.9
2019-04-03T08:44:00.730Z,85
2019-04-03T08:44:49.767Z,84.8
2019-04-03T08:45:39.786Z,84.8
2019-04-03T08:46:29.777Z,84.8
2019-04-03T08:47:19.797Z,84.8
2019-04-03T08:48:09.814Z,84.8
2019-04-03T08:48:59.802Z,84.7
2019-04-03T08:49:49.832Z,84.7
2019-04-03T08:50:40.297Z,84.9
2019-04-03T08:51:29.754Z,85.3
2019-04-03T08:52:19.816Z,85.4
2019-04-03T08:53:09.933Z,85.3
2019-04-03T08:53:59.797Z,85.3
2019-04-03T08:54:49.851Z,85.4
2019-04-03T08:55:39.935Z,85.2
2019-04-03T08:56:29.855Z,84.9
2019-04-03T08:57:20.430Z,84.8
2019-04-03T08:58:10.010Z,84.7
2019-04-03T08:58:59.756Z,84.6
2019-04-03T08:59:49.778Z,84.4
2019-04-03T09:00:41.855Z,84.3
2019-04-03T09:01:29.736Z,84.2
2019-04-03T09:02:19.830Z,84.2
2019-04-03T09:03:09.837Z,84
2019-04-03T09:03:59.953Z,83.9
2019-04-03T09:04:49.853Z,83.5
2019-04-03T09:05:39.993Z,83.2
2019-04-03T09:06:29.765Z,83.2
2019-04-03T09:07:19.751Z,83.2
2019-04-03T09:08:09.839Z,83.1
2019-04-03T09:09:00.092Z,81.3
2019-04-03T09:09:49.859Z,81.7
2019-04-03T09:10:39.944Z,81.8
2019-04-03T09:11:29.961Z,81.9
2019-04-03T09:12:19.801Z,81.6
2019-04-03T09:13:17.270Z,81.7
2019-04-03T09:13:59.778Z,81.8
2019-04-03T09:14:49.834Z,81.9
2019-04-03T09:15:39.992Z,81.8
2019-04-03T09:16:30.855Z,81.7
2019-04-03T09:17:19.963Z,81.7
2019-04-03T09:18:09.849Z,81.9
2019-04-03T09:18:59.749Z,81.9
2019-04-03T09:19:49.753Z,81.9
2019-04-03T09:20:41.021Z,81.9
2019-04-03T09:21:29.819Z,82
2019-04-03T09:22:21.493Z,81.7
2019-04-03T09:23:09.991Z,81.5
2019-04-03T09:24:00.129Z,81.3
2019-04-03T09:24:50.000Z,81.5
2019-04-03T09:25:39.836Z,81.7
2019-04-03T09:26:29.985Z,81.7
2019-04-03T09:27:19.778Z,81.8
2019-04-03T09:28:10.972Z,81.8
2019-04-03T09:28:59.892Z,81.8
2019-04-03T09:29:49.891Z,80.8
2019-04-03T09:30:39.777Z,80.8
2019-04-03T09:31:29.812Z,81.1
2019-04-03T09:32:20.862Z,81.2
2019-04-03T09:33:10.109Z,81.4
2019-04-03T09:33:59.883Z,81.4
2019-04-03T09:34:49.755Z,81.3
2019-04-03T09:35:42.655Z,80.4
2019-04-03T09:36:29.822Z,80.2
2019-04-03T09:37:19.799Z,80.1
2019-04-03T09:38:10.287Z,79.9
2019-04-03T09:38:59.791Z,80.1
2019-04-03T09:39:49.844Z,80.3
2019-04-03T09:40:39.809Z,80.5
2019-04-03T09:41:29.789Z,80
2019-04-03T09:42:21.202Z,80
2019-04-03T09:43:09.870Z,80
2019-04-03T09:43:59.938Z,80
2019-04-03T09:44:49.983Z,80
2019-04-03T09:45:39.796Z,79.9
2019-04-03T09:46:31.455Z,79.9
2019-04-03T09:47:19.821Z,80
2019-04-03T09:48:11.919Z,80.1
2019-04-03T09:49:00.624Z,80.3
2019-04-03T09:49:52.059Z,80.2
2019-04-03T09:50:40.110Z,80.3
2019-04-03T09:51:30.494Z,80.5
2019-04-03T09:52:21.139Z,80.5
2019-04-03T09:53:10.286Z,80
2019-04-03T09:54:00.110Z,80.1
2019-04-03T09:54:50.730Z,79.9
2019-04-03T09:55:40.135Z,79.8
2019-04-03T09:56:30.030Z,79.8
2019-04-03T09:57:20.177Z,80.1
2019-04-03T09:58:10.150Z,80.2
2019-04-03T09:59:00.394Z,80.3
2019-04-03T09:59:50.339Z,80.1
2019-04-03T10:00:41.876Z,80
2019-04-03T10:01:30.069Z,80
2019-04-03T10:02:20.321Z,80
2019-04-03T10:03:10.133Z,80.1
2019-04-03T10:04:00.104Z,80.2
2019-04-03T10:04:50.054Z,80.1
2019-04-03T10:05:40.048Z,80
2019-04-03T10:06:30.669Z,80
2019-04-03T10:07:20.051Z,80.2
2019-04-03T10:08:10.345Z,80.1
2019-04-03T10:09:00.075Z,80.2
2019-04-03T10:09:53.830Z,80.1
2019-04-03T10:10:40.219Z,80.1
2019-04-03T10:11:30.113Z,80.1
2019-04-03T10:12:20.862Z,79.9
2019-04-03T10:13:10.161Z,79.8
2019-04-03T10:14:00.773Z,79.7
2019-04-03T10:14:50.418Z,79.6
2019-04-03T10:15:40.323Z,79.5
2019-04-03T10:16:30.069Z,79.4
2019-04-03T10:17:20.101Z,79.2
2019-04-03T10:18:10.267Z,79.1
2019-04-03T10:19:00.034Z,79.1
2019-04-03T10:19:50.075Z,78.8
2019-04-03T10:20:40.056Z,79
2019-04-03T10:21:32.516Z,79
2019-04-03T10:22:21.843Z,78.9
2019-04-03T10:23:10.281Z,78.9
2019-04-03T10:24:00.520Z,78.8
2019-04-03T10:24:50.077Z,78
2019-04-03T10:25:40.376Z,78
2019-04-03T10:26:31.305Z,77.8
2019-04-03T10:27:20.237Z,78
2019-04-03T10:28:13.502Z,78.2
2019-04-03T10:29:00.353Z,78.4
2019-04-03T10:29:50.794Z,78.7
2019-04-03T10:30:40.043Z,78.6
2019-04-03T10:31:30.342Z,78.3
2019-04-03T10:32:20.267Z,78.1
2019-04-03T10:33:10.297Z,77.9
2019-04-03T10:34:00.859Z,76.7
2019-04-03T10:34:50.067Z,76.6
2019-04-03T10:35:40.052Z,76.9
2019-04-03T10:36:30.056Z,77.2
2019-04-03T10:37:20.145Z,77.8
2019-04-03T10:38:10.178Z,78
2019-04-03T10:39:01.860Z,77.7
2019-04-03T10:39:52.578Z,77.8
2019-04-03T10:40:40.051Z,77.9
2019-04-03T10:41:30.398Z,78.2
2019-04-03T10:42:20.318Z,78.1
2019-04-03T10:43:10.478Z,77.7
2019-04-03T10:44:00.539Z,77.6
2019-04-03T10:44:50.182Z,77.8
2019-04-03T10:45:40.259Z,78.1
2019-04-03T10:46:30.118Z,78.1
2019-04-03T10:47:23.390Z,78.1
2019-04-03T10:48:10.187Z,77.9
2019-04-03T10:49:01.205Z,78
2019-04-03T10:49:50.042Z,78.1
2019-04-03T10:50:40.091Z,78
2019-04-03T10:51:31.396Z,78
2019-04-03T10:52:20.061Z,77.9
2019-04-03T10:53:10.191Z,77.7
2019-04-03T10:54:00.782Z,77.4
2019-04-03T10:54:50.468Z,77.4
2019-04-03T10:55:40.142Z,77.5
2019-04-03T10:56:31.124Z,77.5
2019-04-03T10:57:20.089Z,77.5
2019-04-03T10:58:10.276Z,77.5
2019-04-03T10:59:10.217Z,77.5
2019-04-03T10:59:53.129Z,77.1
2019-04-03T11:00:40.093Z,77.2
2019-04-03T11:01:30.047Z,76.9
2019-04-03T11:02:20.153Z,77
2019-04-03T11:03:10.193Z,76.9
2019-04-03T11:04:00.597Z,76.9
2019-04-03T11:04:50.072Z,76.6
2019-04-03T11:05:40.073Z,76
2019-04-03T11:06:30.153Z,75.7
2019-04-03T11:07:20.246Z,75.4
2019-04-03T11:08:10.463Z,74.2
2019-04-03T11:09:01.569Z,73.9
2019-04-03T11:09:50.157Z,74.5
2019-04-03T11:10:40.115Z,75
2019-04-03T11:11:30.528Z,75.1
2019-04-03T11:12:20.188Z,74.8
2019-04-03T11:13:10.215Z,75
2019-04-03T11:14:03.755Z,74.7
2019-04-03T11:14:50.381Z,74.8
2019-04-03T11:15:40.449Z,74.6
2019-04-03T11:16:30.060Z,74.4
2019-04-03T11:17:20.086Z,74.5
2019-04-03T11:18:10.580Z,74.5
2019-04-03T11:19:04.953Z,74.7
2019-04-03T11:19:50.129Z,74.9
2019-04-03T11:20:40.953Z,74.7
2019-04-03T11:21:30.058Z,74.7
2019-04-03T11:22:20.255Z,75.1
2019-04-03T11:23:10.210Z,75.1
2019-04-03T11:24:00.207Z,74.1
2019-04-03T11:24:50.040Z,74.2
2019-04-03T11:25:41.600Z,74.4
2019-04-03T11:26:30.191Z,74.8